Time;durP1;ratioP1;P1;durP2;ratioP2;P2;SDS_P1;SDS_P2;PMS_P1;PMS_P2;Temp;Humidity;BMP_temperature;BMP_pressure;BME280_temperature;BME280_humidity;BME280_pressure;Samples;Min_cycle;Max_cycle;Signal;HPM_P1;HPM_P2
2023/04/13 00:00:12;;;;;;;3.38;1.60;;;12.40;80.10;;;;;;4954458;29;20031;-81
2023/04/13 00:02:38;;;;;;;2.53;1.50;;;12.40;80.00;;;;;;4937566;29;20055;-83
2023/04/13 00:05:09;;;;;;;3.50;1.55;;;12.30;80.00;;;;;;4937352;29;20078;-81
2023/04/13 00:07:39;;;;;;;4.65;2.13;;;12.40;80.00;;;;;;4937585;29;20073;-82
2023/04/13 00:10:09;;;;;;;4.40;1.80;;;12.40;80.00;;;;;;4937659;29;20035;-81
2023/04/13 00:12:35;;;;;;;2.92;1.70;;;12.40;80.10;;;;;;4954575;29;20107;-82
2023/04/13 00:15:04;;;;;;;3.45;1.80;;;12.40;80.00;;;;;;4937453;29;20030;-82
2023/04/13 00:17:32;;;;;;;3.90;1.80;;;12.40;80.10;;;;;;4937351;29;20110;-82
2023/04/13 00:19:58;;;;;;;4.70;1.85;;;12.40;80.10;;;;;;4937925;29;20542;-80
2023/04/13 00:22:24;;;;;;;3.13;1.55;;;12.40;79.90;;;;;;4937634;29;20031;-82
2023/04/13 00:24:54;;;;;;;3.78;1.70;;;12.40;79.90;;;;;;4937384;29;20143;-82
2023/04/13 00:27:20;;;;;;;3.28;1.65;;;12.40;80.00;;;;;;4937440;29;20033;-82
2023/04/13 00:29:46;;;;;;;2.85;1.70;;;12.40;79.80;;;;;;4954382;29;20024;-81
2023/04/13 00:32:11;;;;;;;3.42;1.80;;;12.40;79.90;;;;;;4937078;29;20511;-82
2023/04/13 00:34:37;;;;;;;3.60;1.75;;;12.40;79.80;;;;;;4937187;29;20022;-82
2023/04/13 00:37:03;;;;;;;3.72;1.92;;;12.40;80.00;;;;;;4954204;29;20023;-82
2023/04/13 00:39:30;;;;;;;3.70;1.80;;;12.40;80.00;;;;;;4937068;29;20027;-82
2023/04/13 00:42:01;;;;;;;3.45;1.70;;;12.40;79.90;;;;;;4937136;29;20029;-81
2023/04/13 00:44:27;;;;;;;3.72;1.60;;;12.40;80.00;;;;;;4937157;29;20031;-79
2023/04/13 00:46:53;;;;;;;4.53;1.83;;;12.40;79.80;;;;;;4937169;29;20518;-81
2023/04/13 00:49:21;;;;;;;2.63;1.48;;;12.30;80.00;;;;;;4929297;29;20035;-82
2023/04/13 00:51:46;;;;;;;3.72;1.70;;;12.30;79.70;;;;;;4937144;29;20051;-82
2023/04/13 00:54:13;;;;;;;3.78;1.75;;;12.40;79.90;;;;;;4936950;29;20400;-82
2023/04/13 00:56:41;;;;;;;3.90;1.83;;;12.30;79.80;;;;;;4954243;29;20496;-81
2023/04/13 00:59:07;;;;;;;3.25;1.67;;;12.30;79.70;;;;;;4936822;29;20404;-82
2023/04/13 01:01:33;;;;;;;3.83;1.45;;;12.30;79.60;;;;;;4954147;29;20114;-81
2023/04/13 01:03:58;;;;;;;3.42;1.70;;;12.30;79.50;;;;;;4936951;29;20121;-81
2023/04/13 01:06:32;;;;;;;3.38;1.65;;;12.40;79.90;;;;;;4954970;28;20466;-81
2023/04/13 01:09:13;;;;;;;2.97;1.60;;;12.30;79.80;;;;;;4940771;29;20078;-81
2023/04/13 01:11:46;;;;;;;3.25;1.65;;;12.40;79.90;;;;;;4940418;29;20058;-82
2023/04/13 01:14:27;;;;;;;4.30;1.92;;;12.40;79.80;;;;;;4957681;29;20226;-82
2023/04/13 01:17:01;;;;;;;4.35;1.60;;;12.30;79.60;;;;;;4940671;29;20086;-81
2023/04/13 01:19:55;;;;;;;2.85;1.75;;;12.30;79.80;;;;;;4940541;29;20035;-83
2023/04/13 01:22:26;;;;;;;4.03;1.77;;;12.30;79.90;;;;;;4940313;29;20034;-81
2023/04/13 01:25:25;;;;;;;5.22;2.05;;;12.40;79.90;;;;;;4940429;29;20035;-82
2023/04/13 01:27:54;;;;;;;3.22;1.70;;;12.30;79.50;;;;;;4940253;29;20436;-81
2023/04/13 01:30:23;;;;;;;2.83;1.65;;;12.30;79.70;;;;;;4939921;29;20035;-82
2023/04/13 01:32:51;;;;;;;3.05;1.55;;;12.30;79.50;;;;;;4940417;29;20027;-82
2023/04/13 01:35:18;;;;;;;2.53;1.58;;;12.40;79.80;;;;;;4940120;29;20024;-82
2023/04/13 01:37:45;;;;;;;3.25;1.45;;;12.30;79.40;;;;;;4940331;29;20030;-81
2023/04/13 01:40:12;;;;;;;2.97;1.60;;;12.30;79.70;;;;;;4939809;29;20031;-81
2023/04/13 01:42:42;;;;;;;3.25;1.60;;;12.30;79.10;;;;;;4939813;29;20063;-82
2023/04/13 01:45:30;;;;;;;3.38;1.83;;;12.30;79.60;;;;;;4939988;29;20101;-82
2023/04/13 01:48:17;;;;;;;2.88;1.60;;;12.30;79.70;;;;;;4940112;29;20062;-81
2023/04/13 01:50:47;;;;;;;3.35;1.60;;;12.30;79.60;;;;;;4957019;29;20047;-81
2023/04/13 01:53:21;;;;;;;3.35;1.60;;;12.40;79.20;;;;;;4939904;29;20024;-82
2023/04/13 01:55:47;;;;;;;3.00;1.75;;;12.20;79.50;;;;;;4939835;29;20116;-82
2023/04/13 01:58:14;;;;;;;3.40;1.80;;;12.30;79.10;;;;;;4939924;29;20031;-82
2023/04/13 02:00:40;;;;;;;3.17;1.42;;;12.30;79.60;;;;;;4939303;29;20028;-82
2023/04/13 02:03:08;;;;;;;2.97;1.60;;;12.30;79.60;;;;;;4939523;29;20023;-81
2023/04/13 02:05:35;;;;;;;2.17;1.30;;;12.30;79.50;;;;;;4939431;29;20123;-81
2023/04/13 02:08:04;;;;;;;3.90;1.80;;;12.30;79.40;;;;;;4939561;29;20102;-82
2023/04/13 02:10:30;;;;;;;3.70;1.50;;;12.30;79.40;;;;;;4939427;29;20023;-82
2023/04/13 02:12:55;;;;;;;3.42;1.55;;;12.30;79.40;;;;;;4939567;29;20539;-82
2023/04/13 02:15:21;;;;;;;2.45;1.35;;;12.30;79.40;;;;;;4939104;29;20110;-82
2023/04/13 02:17:47;;;;;;;3.75;1.60;;;12.30;79.30;;;;;;4956208;28;20019;-82
2023/04/13 02:20:12;;;;;;;2.95;1.40;;;12.30;79.40;;;;;;4939207;29;20139;-81
2023/04/13 02:22:40;;;;;;;2.72;1.50;;;12.30;79.50;;;;;;4939233;29;20392;-81
2023/04/13 02:25:10;;;;;;;2.83;1.42;;;12.30;79.20;;;;;;4939107;29;20083;-82
2023/04/13 02:27:37;;;;;;;3.60;1.50;;;12.30;79.30;;;;;;4939082;29;20035;-82
2023/04/13 02:30:04;;;;;;;2.25;1.27;;;12.30;79.50;;;;;;4937427;29;20027;-82
2023/04/13 02:32:30;;;;;;;1.95;1.17;;;12.30;79.60;;;;;;4933312;29;20031;-81
2023/04/13 02:34:55;;;;;;;2.45;1.30;;;12.30;79.60;;;;;;4938962;29;20023;-80
2023/04/13 02:37:22;;;;;;;2.97;1.30;;;12.30;79.60;;;;;;4939083;29;20094;-82
2023/04/13 02:39:47;;;;;;;2.40;1.15;;;12.30;79.60;;;;;;4939168;29;20567;-82
2023/04/13 02:42:13;;;;;;;2.20;1.20;;;12.30;79.30;;;;;;4938754;29;20031;-82
2023/04/13 02:44:39;;;;;;;3.22;1.10;;;12.30;79.30;;;;;;4956010;29;20082;-82
2023/04/13 02:47:05;;;;;;;2.65;1.30;;;12.30;79.20;;;;;;4938711;29;20156;-82
2023/04/13 02:49:31;;;;;;;2.25;1.10;;;12.30;79.60;;;;;;4938675;29;20027;-81
2023/04/13 02:51:57;;;;;;;2.53;1.52;;;12.30;79.40;;;;;;4955636;29;20015;-82
2023/04/13 02:54:23;;;;;;;2.50;1.38;;;12.30;79.60;;;;;;4938802;29;20027;-81
2023/04/13 02:56:48;;;;;;;2.17;1.17;;;12.30;79.60;;;;;;4955876;29;20027;-82
2023/04/13 02:59:15;;;;;;;2.70;1.20;;;12.30;79.40;;;;;;4955367;29;20066;-80
2023/04/13 03:01:40;;;;;;;3.30;1.20;;;12.30;79.70;;;;;;4938248;29;20105;-82
2023/04/13 03:04:07;;;;;;;2.30;1.20;;;12.30;79.70;;;;;;4938511;29;20485;-82
2023/04/13 03:06:32;;;;;;;2.60;1.40;;;12.30;79.80;;;;;;4995068;23;20138;-82
2023/04/13 03:08:58;;;;;;;3.10;1.40;;;12.30;79.50;;;;;;4937951;29;20118;-82
2023/04/13 03:11:24;;;;;;;2.78;1.20;;;12.30;79.60;;;;;;4943726;29;20023;-83
2023/04/13 03:13:53;;;;;;;2.60;1.30;;;12.30;79.60;;;;;;4947335;29;20051;-83
2023/04/13 03:16:19;;;;;;;2.78;1.20;;;12.30;79.40;;;;;;4946759;29;20027;-83
2023/04/13 03:18:45;;;;;;;3.15;1.30;;;12.30;79.80;;;;;;4946482;29;20119;-83
2023/04/13 03:21:11;;;;;;;1.95;1.02;;;12.30;79.70;;;;;;4947689;29;20054;-83
2023/04/13 03:23:37;;;;;;;1.88;1.02;;;12.30;79.80;;;;;;4947541;29;20031;-83
2023/04/13 03:26:03;;;;;;;2.25;1.02;;;12.30;79.60;;;;;;4964572;29;20117;-83
2023/04/13 03:28:28;;;;;;;2.10;1.10;;;12.30;79.60;;;;;;4963617;28;20027;-83
2023/04/13 03:30:54;;;;;;;2.63;1.25;;;12.30;79.80;;;;;;4946161;29;20086;-83
2023/04/13 03:33:20;;;;;;;2.35;1.05;;;12.30;79.70;;;;;;4945548;29;20030;-83
2023/04/13 03:35:45;;;;;;;2.28;1.08;;;12.30;79.50;;;;;;4944916;29;20559;-83
2023/04/13 03:38:11;;;;;;;2.55;1.15;;;12.30;79.90;;;;;;4945267;29;20078;-83
2023/04/13 03:40:36;;;;;;;2.15;1.20;;;12.30;79.80;;;;;;4962106;29;20110;-83
2023/04/13 03:43:02;;;;;;;1.83;1.00;;;12.30;79.90;;;;;;4955424;29;20019;-82
2023/04/13 03:45:27;;;;;;;1.80;1.08;;;12.30;79.60;;;;;;4943616;29;20467;-83
2023/04/13 03:47:53;;;;;;;2.78;1.10;;;12.30;79.80;;;;;;4945174;29;20456;-83
2023/04/13 03:50:19;;;;;;;1.88;1.10;;;12.30;79.20;;;;;;4943634;29;20054;-83
2023/04/13 03:52:44;;;;;;;2.40;1.23;;;12.30;79.80;;;;;;4943833;29;20074;-83
2023/04/13 03:55:09;;;;;;;2.15;1.10;;;12.30;79.30;;;;;;4959897;29;20031;-82
2023/04/13 03:57:35;;;;;;;2.25;1.20;;;12.30;79.80;;;;;;4937494;29;20558;-83
2023/04/13 04:00:02;;;;;;;1.65;0.90;;;12.30;79.80;;;;;;4938049;29;20488;-82
2023/04/13 04:02:27;;;;;;;2.35;1.10;;;12.30;79.80;;;;;;4940310;29;20046;-83
2023/04/13 04:04:53;;;;;;;2.10;1.10;;;12.30;79.90;;;;;;4942834;29;20036;-83
2023/04/13 04:07:21;;;;;;;1.67;0.90;;;12.30;79.70;;;;;;4937289;29;20038;-82
2023/04/13 04:09:47;;;;;;;1.85;0.93;;;12.30;79.30;;;;;;4940472;29;20444;-83
2023/04/13 04:12:13;;;;;;;1.60;1.00;;;12.30;79.60;;;;;;4959057;29;20023;-83
2023/04/13 04:14:38;;;;;;;2.15;1.10;;;12.30;79.30;;;;;;4941767;29;20038;-83
2023/04/13 04:17:04;;;;;;;1.77;0.98;;;12.30;79.80;;;;;;4940992;29;20078;-83
2023/04/13 04:19:29;;;;;;;1.45;0.90;;;12.30;79.50;;;;;;4940967;29;20031;-83
2023/04/13 04:21:56;;;;;;;2.88;1.00;;;12.30;79.70;;;;;;4940882;29;20030;-83
2023/04/13 04:24:22;;;;;;;2.35;1.00;;;12.30;79.30;;;;;;4937827;29;20039;-82
2023/04/13 04:26:48;;;;;;;1.58;0.80;;;12.30;79.90;;;;;;4955669;29;20027;-82
2023/04/13 04:29:20;;;;;;;1.95;1.00;;;12.30;79.60;;;;;;4936867;29;20599;-80
2023/04/13 04:31:51;;;;;;;2.17;1.00;;;12.30;79.70;;;;;;4934883;29;20377;-83
2023/04/13 04:34:20;;;;;;;1.80;0.90;;;12.30;79.50;;;;;;4922610;29;20578;-81
2023/04/13 04:36:49;;;;;;;2.28;0.98;;;12.30;79.90;;;;;;4916339;29;20099;-82
2023/04/13 04:39:20;;;;;;;2.45;1.10;;;12.30;79.80;;;;;;4917327;29;20032;-80
2023/04/13 04:41:53;;;;;;;2.35;1.05;;;12.20;79.80;;;;;;4961727;28;20030;-79
2023/04/13 04:44:19;;;;;;;1.65;0.90;;;12.30;79.80;;;;;;4947971;29;20127;-81
2023/04/13 04:46:47;;;;;;;1.75;1.00;;;12.20;79.70;;;;;;4939979;29;20038;-79
2023/04/13 04:49:13;;;;;;;1.77;0.90;;;12.30;79.90;;;;;;4939006;29;20058;-81
2023/04/13 04:51:38;;;;;;;2.33;1.00;;;12.30;79.70;;;;;;4937958;29;20078;-82
2023/04/13 04:54:06;;;;;;;1.70;0.93;;;12.30;79.60;;;;;;4957361;29;20027;-83
2023/04/13 04:56:31;;;;;;;1.77;0.98;;;12.30;79.70;;;;;;4958177;29;20027;-84
2023/04/13 04:58:57;;;;;;;1.88;0.90;;;12.30;79.90;;;;;;4945067;29;20186;-82
2023/04/13 05:01:25;;;;;;;1.65;1.00;;;12.30;80.00;;;;;;4964379;29;20039;-83
2023/04/13 05:03:53;;;;;;;1.45;0.88;;;12.30;80.10;;;;;;4942366;29;20035;-82
2023/04/13 05:06:19;;;;;;;1.63;0.70;;;12.30;80.20;;;;;;4938191;29;20677;-80
2023/04/13 05:08:45;;;;;;;1.70;0.80;;;12.30;80.00;;;;;;4937796;29;20034;-82
2023/04/13 05:11:10;;;;;;;1.83;0.90;;;12.30;80.00;;;;;;4937763;29;20046;-81
2023/04/13 05:13:36;;;;;;;1.45;0.80;;;13.10;80.50;;;;;;4939308;29;20121;-85
2023/04/13 05:16:04;;;;;;;1.63;0.90;;;12.20;79.70;;;;;;4940872;29;20023;-82
2023/04/13 05:18:31;;;;;;;1.75;0.90;;;12.20;79.30;;;;;;4959553;29;20039;-83
2023/04/13 05:20:57;;;;;;;2.15;0.85;;;12.20;79.70;;;;;;4941139;29;20058;-84
2023/04/13 05:23:23;;;;;;;1.25;0.80;;;12.30;79.90;;;;;;4940702;29;20058;-83
2023/04/13 05:25:49;;;;;;;1.50;0.90;;;12.30;80.10;;;;;;4940953;29;20035;-82
2023/04/13 05:28:14;;;;;;;1.95;0.90;;;12.20;80.00;;;;;;4939827;29;20034;-82
2023/04/13 05:30:40;;;;;;;1.98;0.90;;;12.30;80.00;;;;;;4940008;29;20079;-82
2023/04/13 05:33:07;;;;;;;3.00;0.80;;;12.20;79.80;;;;;;4939801;29;20038;-81
2023/04/13 05:35:33;;;;;;;3.28;0.80;;;12.20;79.30;;;;;;4957329;29;20506;-82
2023/04/13 05:38:01;;;;;;;3.08;1.00;;;12.20;79.10;;;;;;4939186;29;20062;-81
2023/04/13 05:40:27;;;;;;;2.05;0.90;;;12.20;79.30;;;;;;4956357;29;20973;-81
2023/04/13 05:42:53;;;;;;;1.48;0.80;;;12.20;79.10;;;;;;4939333;29;20097;-82
2023/04/13 05:45:19;;;;;;;2.38;0.68;;;12.20;79.10;;;;;;4939219;29;20031;-83
2023/04/13 05:47:44;;;;;;;2.65;0.93;;;12.20;79.10;;;;;;4940046;29;20023;-79
2023/04/13 05:50:11;;;;;;;3.22;0.90;;;12.30;78.80;;;;;;4938521;29;20158;-80
2023/04/13 05:52:37;;;;;;;3.58;0.90;;;12.30;79.00;;;;;;4938357;29;20031;-83
2023/04/13 05:55:02;;;;;;;1.60;0.60;;;12.30;79.10;;;;;;4961182;29;20110;-85
2023/04/13 05:57:28;;;;;;;2.78;0.90;;;12.30;79.20;;;;;;4946238;29;20034;-85
2023/04/13 05:59:54;;;;;;;2.17;0.95;;;12.30;79.20;;;;;;4946067;29;20034;-84
2023/04/13 06:02:19;;;;;;;2.42;0.80;;;12.30;79.20;;;;;;4946007;29;20031;-84
2023/04/13 06:04:45;;;;;;;1.98;0.70;;;12.30;79.20;;;;;;4963238;29;20055;-84
2023/04/13 06:07:13;;;;;;;7.22;0.85;;;12.30;79.10;;;;;;4944749;29;20476;-83
2023/04/13 06:09:38;;;;;;;2.05;0.80;;;12.30;79.10;;;;;;4944152;29;20042;-84
2023/04/13 06:12:04;;;;;;;1.85;0.73;;;12.30;79.20;;;;;;4944339;29;20249;-84
2023/04/13 06:14:30;;;;;;;3.83;1.20;;;12.30;79.40;;;;;;4962677;29;20527;-84
2023/04/13 06:16:56;;;;;;;1.95;0.70;;;12.30;79.30;;;;;;4944839;29;20023;-83
2023/04/13 06:19:21;;;;;;;3.20;0.80;;;12.30;79.40;;;;;;4943379;29;20502;-84
2023/04/13 06:21:47;;;;;;;2.92;0.80;;;12.30;79.40;;;;;;4943643;29;20027;-83
2023/04/13 06:24:12;;;;;;;2.17;0.70;;;12.30;79.50;;;;;;4943225;29;20110;-83
2023/04/13 06:26:38;;;;;;;1.20;0.70;;;12.30;79.40;;;;;;4960351;29;20476;-84
2023/04/13 06:29:03;;;;;;;2.63;0.80;;;12.30;79.50;;;;;;4942668;29;20035;-83
2023/04/13 06:31:29;;;;;;;2.72;0.88;;;12.30;79.60;;;;;;4942520;29;20028;-83
2023/04/13 06:33:54;;;;;;;2.10;0.70;;;12.30;79.60;;;;;;4942532;29;20388;-83
2023/04/13 06:36:20;;;;;;;1.15;0.60;;;12.30;79.70;;;;;;4959492;29;20099;-84
2023/04/13 06:38:46;;;;;;;2.00;0.73;;;12.30;79.70;;;;;;4941889;29;20035;-83
2023/04/13 06:41:11;;;;;;;1.23;0.60;;;12.30;79.60;;;;;;4940687;29;20030;-83
2023/04/13 06:43:37;;;;;;;1.38;0.70;;;12.30;79.60;;;;;;4938381;29;20027;-84
2023/04/13 06:46:03;;;;;;;1.90;0.65;;;12.30;79.70;;;;;;4938318;29;20293;-83
2023/04/13 06:48:29;;;;;;;3.22;0.75;;;12.30;79.60;;;;;;4943596;29;20027;-85
2023/04/13 06:50:55;;;;;;;1.90;0.77;;;12.30;79.40;;;;;;4961841;29;20552;-84
2023/04/13 06:53:21;;;;;;;2.00;0.77;;;12.30;79.60;;;;;;4944603;29;20110;-84
2023/04/13 06:55:47;;;;;;;1.48;0.65;;;12.30;79.60;;;;;;4944052;29;20054;-84
2023/04/13 06:58:12;;;;;;;1.73;0.88;;;12.30;79.60;;;;;;4944142;29;20019;-83
2023/04/13 07:00:38;;;;;;;2.17;0.60;;;12.30;79.70;;;;;;4960490;29;20086;-84
2023/04/13 07:03:03;;;;;;;2.53;0.77;;;12.40;79.70;;;;;;4956432;28;20031;-83
2023/04/13 07:05:29;;;;;;;0.73;0.47;;;12.30;79.60;;;;;;4957589;29;20071;-83
2023/04/13 07:07:55;;;;;;;3.03;0.70;;;12.40;80.10;;;;;;4943234;29;20082;-84
2023/04/13 07:10:21;;;;;;;2.75;0.70;;;12.40;79.70;;;;;;4943121;29;20031;-85
2023/04/13 07:12:47;;;;;;;1.95;0.73;;;12.40;79.70;;;;;;4959952;29;20535;-84
2023/04/13 07:15:12;;;;;;;1.77;0.60;;;12.30;79.70;;;;;;4941820;29;20055;-83
2023/04/13 07:17:38;;;;;;;2.53;0.70;;;12.40;79.80;;;;;;4954557;29;20031;-83
2023/04/13 07:20:06;;;;;;;1.77;0.65;;;12.40;79.90;;;;;;4958849;29;20041;-84
2023/04/13 07:22:32;;;;;;;1.77;0.60;;;12.40;79.80;;;;;;4957948;29;20051;-83
2023/04/13 07:24:58;;;;;;;2.05;0.60;;;12.40;79.90;;;;;;4937289;29;20046;-83
2023/04/13 07:27:23;;;;;;;0.65;0.50;;;12.40;79.90;;;;;;4941307;29;20043;-83
2023/04/13 07:29:53;;;;;;;2.00;0.60;;;12.40;79.90;;;;;;4956895;29;20036;-83
2023/04/13 07:32:19;;;;;;;2.22;0.80;;;12.40;79.90;;;;;;4937955;29;20510;-83
2023/04/13 07:34:45;;;;;;;1.45;0.65;;;12.40;79.90;;;;;;4940429;29;20078;-83
2023/04/13 07:37:11;;;;;;;1.52;0.80;;;12.40;79.90;;;;;;4940195;29;20087;-84
2023/04/13 07:39:36;;;;;;;1.13;0.60;;;12.40;79.90;;;;;;4939748;29;20035;-84
2023/04/13 07:42:02;;;;;;;0.82;0.60;;;12.40;79.90;;;;;;4936785;29;20030;-83
2023/04/13 07:44:27;;;;;;;1.33;0.60;;;12.40;79.90;;;;;;4939928;29;20499;-83
2023/04/13 07:46:56;;;;;;;1.08;0.55;;;12.40;79.80;;;;;;4939748;29;20365;-84
2023/04/13 07:49:22;;;;;;;0.82;0.57;;;12.50;79.90;;;;;;4939951;29;20027;-81
2023/04/13 07:51:51;;;;;;;1.17;0.73;;;12.50;79.70;;;;;;4936343;29;20035;-83
2023/04/13 07:54:16;;;;;;;1.38;0.60;;;12.60;79.80;;;;;;4938378;29;20168;-84
2023/04/13 07:56:42;;;;;;;2.20;0.80;;;12.60;79.70;;;;;;4939420;29;20024;-84
2023/04/13 07:59:07;;;;;;;1.48;0.68;;;12.60;79.70;;;;;;4939549;29;20031;-84
2023/04/13 08:01:33;;;;;;;0.80;0.60;;;12.60;79.60;;;;;;4939271;29;20027;-83
2023/04/13 08:03:59;;;;;;;0.77;0.60;;;12.60;79.40;;;;;;4939455;29;20530;-84
2023/04/13 08:06:26;;;;;;;1.20;0.60;;;12.70;79.40;;;;;;4938873;29;20039;-84
2023/04/13 08:08:52;;;;;;;2.40;0.60;;;12.70;79.30;;;;;;4938523;29;20027;-84
2023/04/13 08:11:18;;;;;;;1.95;0.68;;;12.70;79.10;;;;;;4956335;29;20023;-84
2023/04/13 08:13:44;;;;;;;1.40;0.70;;;12.70;79.10;;;;;;4938585;29;20389;-84
2023/04/13 08:16:10;;;;;;;1.15;0.70;;;12.70;79.20;;;;;;4942771;29;20039;-83
2023/04/13 08:18:36;;;;;;;1.40;0.70;;;12.70;79.10;;;;;;4944575;29;20038;-84
2023/04/13 08:21:06;;;;;;;2.17;0.77;;;12.70;79.10;;;;;;4944138;29;20059;-84
2023/04/13 08:23:32;;;;;;;1.80;0.70;;;12.70;79.20;;;;;;4960235;29;20032;-83
2023/04/13 08:26:01;;;;;;;1.38;0.68;;;12.70;79.20;;;;;;4943155;29;20186;-83
2023/04/13 08:28:26;;;;;;;1.42;0.70;;;12.70;79.30;;;;;;4943025;29;20027;-84
2023/04/13 08:30:52;;;;;;;1.45;0.70;;;12.70;79.40;;;;;;4960028;29;20030;-83
2023/04/13 08:33:17;;;;;;;1.38;0.68;;;12.70;79.50;;;;;;4942996;29;20519;-84
2023/04/13 08:35:43;;;;;;;1.33;0.60;;;12.70;79.40;;;;;;4942802;29;20026;-83
2023/04/13 08:38:09;;;;;;;1.17;0.65;;;12.70;79.50;;;;;;4942983;29;20026;-84
2023/04/13 08:40:37;;;;;;;1.15;0.70;;;12.70;79.60;;;;;;4961338;28;20070;-84
2023/04/13 08:43:03;;;;;;;1.20;0.70;;;12.70;79.50;;;;;;4943970;29;20441;-84
2023/04/13 08:45:29;;;;;;;1.58;0.70;;;12.70;79.40;;;;;;4943584;29;20023;-84
2023/04/13 08:47:57;;;;;;;2.05;0.70;;;12.80;79.30;;;;;;4942830;29;20030;-84
2023/04/13 08:50:24;;;;;;;2.17;0.80;;;12.80;79.10;;;;;;4942688;29;20023;-84
2023/04/13 08:52:50;;;;;;;1.08;0.70;;;12.80;78.90;;;;;;4960025;29;20059;-82
2023/04/13 08:55:16;;;;;;;0.75;0.60;;;12.90;78.80;;;;;;4959894;28;20068;-82
2023/04/13 08:57:45;;;;;;;1.30;0.80;;;12.90;78.60;;;;;;4943558;29;20051;-82
2023/04/13 09:00:15;;;;;;;2.28;0.80;;;13.00;78.60;;;;;;4942404;29;20374;-79
2023/04/13 09:02:46;;;;;;;1.45;0.85;;;13.00;78.50;;;;;;4942799;29;20028;-82
2023/04/13 09:05:15;;;;;;;;;;;13.00;78.30;;;;;;4943095;29;20035;-81
2023/04/13 09:07:44;;;;;;;0.70;0.70;;;13.00;78.20;;;;;;4950092;23;19962;-82
2023/04/13 09:10:10;;;;;;;1.20;0.70;;;13.10;78.20;;;;;;4923243;29;20042;-82
2023/04/13 09:12:35;;;;;;;0.80;0.70;;;13.10;78.00;;;;;;4923606;29;20393;-82
2023/04/13 09:15:04;;;;;;;1.33;0.75;;;13.10;78.00;;;;;;4923647;29;20058;-82
2023/04/13 09:17:31;;;;;;;2.05;0.93;;;13.10;78.10;;;;;;4923599;29;20023;-82
2023/04/13 09:20:11;;;;;;;1.50;0.80;;;13.10;78.00;;;;;;4940458;29;20031;-80
2023/04/13 09:22:36;;;;;;;1.10;0.70;;;13.10;78.10;;;;;;4940533;29;20509;-81
2023/04/13 09:25:04;;;;;;;1.50;0.80;;;13.10;78.00;;;;;;4923529;29;20035;-81
2023/04/13 09:27:29;;;;;;;1.20;0.90;;;13.10;78.40;;;;;;4920455;29;20107;-82
2023/04/13 09:29:56;;;;;;;2.40;0.80;;;13.00;78.50;;;;;;4920195;29;20167;-81
2023/04/13 09:32:27;;;;;;;1.55;0.80;;;13.00;78.50;;;;;;4920180;29;20024;-80
2023/04/13 09:35:07;;;;;;;1.10;0.90;;;13.00;78.60;;;;;;4937246;29;20485;-79
2023/04/13 09:37:34;;;;;;;1.85;0.80;;;13.00;78.60;;;;;;4937372;29;20024;-80
2023/04/13 09:40:17;;;;;;;1.40;0.90;;;13.00;78.70;;;;;;4920359;29;20700;-79
2023/04/13 09:42:59;;;;;;;1.25;0.80;;;12.90;78.70;;;;;;4920090;29;20032;-80
2023/04/13 09:45:33;;;;;;;1.65;0.70;;;12.90;78.70;;;;;;4937237;29;20032;-80
2023/04/13 09:48:01;;;;;;;1.20;0.80;;;12.90;78.90;;;;;;4919942;29;20032;-80
2023/04/13 09:50:27;;;;;;;1.38;0.73;;;12.90;78.90;;;;;;4920019;29;20023;-79
2023/04/13 09:53:05;;;;;;;1.10;0.90;;;12.90;78.90;;;;;;4936966;29;20035;-80
2023/04/13 09:55:33;;;;;;;1.60;0.80;;;12.90;79.10;;;;;;4920065;29;20110;-80
2023/04/13 09:58:16;;;;;;;1.60;0.90;;;12.80;79.00;;;;;;4919869;29;20040;-80
2023/04/13 10:00:44;;;;;;;0.80;0.75;;;12.90;79.10;;;;;;4936710;29;20031;-78
2023/04/13 10:03:14;;;;;;;1.67;0.90;;;12.80;79.20;;;;;;4919723;29;20186;-81
2023/04/13 10:05:41;;;;;;;1.23;0.75;;;12.80;79.20;;;;;;4919764;29;20525;-80
2023/04/13 10:08:07;;;;;;;0.98;0.70;;;12.80;79.30;;;;;;4936763;29;20493;-80
2023/04/13 10:10:33;;;;;;;2.33;0.98;;;12.80;79.30;;;;;;4919491;29;20024;-81
2023/04/13 10:13:17;;;;;;;1.27;0.80;;;12.80;79.40;;;;;;4919599;29;20028;-80
2023/04/13 10:16:04;;;;;;;0.80;0.70;;;12.80;79.40;;;;;;4919690;29;20079;-81
2023/04/13 10:18:58;;;;;;;0.80;0.80;;;12.80;79.50;;;;;;4919662;29;20027;-82
2023/04/13 10:21:32;;;;;;;2.45;0.88;;;12.80;79.60;;;;;;4919482;29;20047;-80
2023/04/13 10:23:57;;;;;;;2.55;1.33;;;12.70;79.50;;;;;;4919593;29;20051;-80
2023/04/13 10:26:33;;;;;;;1.80;1.00;;;12.80;79.60;;;;;;4919528;29;20071;-80
2023/04/13 10:29:00;;;;;;;2.25;0.77;;;12.70;79.60;;;;;;4919094;29;20024;-80
2023/04/13 10:31:37;;;;;;;1.60;0.82;;;12.70;79.60;;;;;;4919204;29;20070;-80
2023/04/13 10:34:04;;;;;;;1.40;0.80;;;12.80;79.70;;;;;;4919271;29;20028;-81
2023/04/13 10:36:41;;;;;;;1.60;0.90;;;12.70;79.70;;;;;;4919485;29;20058;-81
2023/04/13 10:39:08;;;;;;;1.30;0.73;;;12.70;79.70;;;;;;4918865;29;20027;-80
2023/04/13 10:41:35;;;;;;;0.98;0.70;;;12.70;79.70;;;;;;4935981;29;20027;-82
2023/04/13 10:44:07;;;;;;;1.63;0.80;;;12.80;79.70;;;;;;4919248;29;20401;-80
2023/04/13 10:46:36;;;;;;;1.52;0.85;;;12.80;79.60;;;;;;4919067;29;20390;-80
2023/04/13 10:49:03;;;;;;;1.65;0.90;;;12.80;79.40;;;;;;4936090;29;20138;-79
2023/04/13 10:51:42;;;;;;;2.55;1.10;;;12.90;79.20;;;;;;4918831;29;20055;-80
2023/04/13 10:54:09;;;;;;;1.88;0.80;;;12.90;78.90;;;;;;4918900;29;20106;-80
2023/04/13 10:56:35;;;;;;;2.25;0.90;;;13.00;78.90;;;;;;4918822;29;20067;-80
2023/04/13 10:59:01;;;;;;;1.70;0.80;;;13.00;78.80;;;;;;4918635;29;20115;-80
2023/04/13 11:01:29;;;;;;;0.85;0.75;;;13.00;78.70;;;;;;4918641;29;20130;-80
2023/04/13 11:03:56;;;;;;;1.73;0.85;;;13.10;78.70;;;;;;4918697;29;20028;-80
2023/04/13 11:06:22;;;;;;;0.88;0.80;;;13.10;78.50;;;;;;4918526;29;20040;-79
2023/04/13 11:08:48;;;;;;;1.70;0.80;;;13.10;78.60;;;;;;4918487;29;20401;-81
2023/04/13 11:11:24;;;;;;;1.13;0.70;;;13.10;78.40;;;;;;4918401;29;20028;-81
2023/04/13 11:13:49;;;;;;;1.13;0.70;;;13.20;78.40;;;;;;4918687;29;20520;-80
2023/04/13 11:16:15;;;;;;;1.10;0.70;;;13.10;78.40;;;;;;4935630;29;20159;-80
2023/04/13 11:18:40;;;;;;;1.27;0.80;;;13.10;78.40;;;;;;4918411;29;20032;-80
2023/04/13 11:21:16;;;;;;;1.45;0.90;;;13.10;78.40;;;;;;4918285;29;20504;-80
2023/04/13 11:23:51;;;;;;;1.30;0.80;;;13.10;78.60;;;;;;4918361;29;20023;-80
2023/04/13 11:26:16;;;;;;;0.85;0.75;;;13.10;78.70;;;;;;4918321;29;20039;-80
2023/04/13 11:28:45;;;;;;;1.23;0.70;;;13.00;78.80;;;;;;4918364;29;20393;-80
2023/04/13 11:31:11;;;;;;;0.90;0.70;;;13.00;78.90;;;;;;4918124;29;20024;-80
2023/04/13 11:33:37;;;;;;;1.08;0.70;;;13.00;79.00;;;;;;4918234;29;20027;-80
2023/04/13 11:36:03;;;;;;;1.45;0.90;;;13.00;79.10;;;;;;4918166;29;20503;-80
2023/04/13 11:38:29;;;;;;;1.15;0.80;;;12.90;79.20;;;;;;4918318;29;20031;-80
2023/04/13 11:41:02;;;;;;;1.67;0.70;;;12.90;79.20;;;;;;4917919;29;20370;-79
2023/04/13 11:43:28;;;;;;;1.27;1.00;;;12.90;79.30;;;;;;4918092;29;20019;-80
2023/04/13 11:45:54;;;;;;;1.13;0.70;;;12.90;79.40;;;;;;4917892;29;20020;-81
2023/04/13 11:48:20;;;;;;;2.10;0.80;;;12.90;79.40;;;;;;4918240;29;20023;-81
2023/04/13 11:50:47;;;;;;;1.60;0.80;;;12.90;79.40;;;;;;4917031;29;20027;-80
2023/04/13 11:53:12;;;;;;;1.35;0.73;;;12.90;79.30;;;;;;4935155;29;20027;-81
2023/04/13 11:55:39;;;;;;;1.45;0.90;;;12.90;79.20;;;;;;4917856;29;20024;-80
2023/04/13 11:58:09;;;;;;;1.30;0.80;;;12.90;79.20;;;;;;4917972;29;20035;-80
2023/04/13 12:00:40;;;;;;;1.00;0.90;;;13.00;79.10;;;;;;4917609;29;20028;-80
2023/04/13 12:03:13;;;;;;;1.20;0.80;;;13.00;79.00;;;;;;4917895;29;20460;-80
2023/04/13 12:05:40;;;;;;;1.35;0.70;;;13.00;79.00;;;;;;4917849;29;20032;-80
2023/04/13 12:08:06;;;;;;;1.83;1.00;;;13.00;78.90;;;;;;4934753;29;20051;-80
2023/04/13 12:10:35;;;;;;;1.27;0.90;;;13.00;78.90;;;;;;4917520;29;20024;-80
2023/04/13 12:13:08;;;;;;;1.17;0.80;;;13.00;78.90;;;;;;4917785;29;20028;-81
2023/04/13 12:15:39;;;;;;;1.17;0.90;;;13.10;78.90;;;;;;4918004;29;20378;-78
2023/04/13 12:18:05;;;;;;;0.95;0.73;;;13.00;78.80;;;;;;4917586;29;20404;-80
2023/04/13 12:20:38;;;;;;;1.02;0.80;;;13.00;78.90;;;;;;4917642;29;20032;-80
2023/04/13 12:23:20;;;;;;;1.15;0.90;;;13.00;78.90;;;;;;4934749;29;20106;-81
2023/04/13 12:26:04;;;;;;;1.40;0.85;;;13.00;79.00;;;;;;4917631;29;20032;-80
2023/04/13 12:28:31;;;;;;;1.63;0.90;;;13.00;79.10;;;;;;4917677;29;20028;-80
2023/04/13 12:31:11;;;;;;;1.15;0.80;;;12.90;79.10;;;;;;4917307;29;20035;-80
2023/04/13 12:33:37;;;;;;;1.75;0.90;;;12.90;79.20;;;;;;4917818;29;20074;-80
2023/04/13 12:36:05;;;;;;;1.63;1.00;;;12.90;79.20;;;;;;4917490;29;20035;-80
2023/04/13 12:38:31;;;;;;;1.02;0.90;;;12.90;79.30;;;;;;4917499;29;20019;-80
2023/04/13 12:40:58;;;;;;;1.40;0.90;;;12.90;79.90;;;;;;4934317;29;20390;-82
2023/04/13 12:43:24;;;;;;;1.25;0.90;;;12.90;79.40;;;;;;4934486;29;20020;-80
2023/04/13 12:45:51;;;;;;;2.20;1.30;;;12.90;79.50;;;;;;4934508;29;20030;-80
2023/04/13 12:48:16;;;;;;;1.95;1.00;;;12.90;79.40;;;;;;4917572;29;20092;-80
2023/04/13 12:50:42;;;;;;;1.10;0.80;;;12.90;79.30;;;;;;4917280;29;20031;-80